sensor_id;sensor_type;location;lat;lon;timestamp;temperature;humidity
8313;DHT22;4194;43.408;24.626;2023-07-31T00:00:27;21.70;99.90
8313;DHT22;4194;43.408;24.626;2023-07-31T00:02:53;21.70;99.90
8313;DHT22;4194;43.408;24.626;2023-07-31T00:05:19;21.60;99.90
8313;DHT22;4194;43.408;24.626;2023-07-31T00:07:45;22.30;99.90
8313;DHT22;4194;43.408;24.626;2023-07-31T00:10:11;21.60;99.90
8313;DHT22;4194;43.408;24.626;2023-07-31T00:12:38;20.70;99.90
8313;DHT22;4194;43.408;24.626;2023-07-31T00:15:04;21.60;99.90
8313;DHT22;4194;43.408;24.626;2023-07-31T00:17:30;21.60;99.90
8313;DHT22;4194;43.408;24.626;2023-07-31T00:19:55;21.60;99.90
8313;DHT22;4194;43.408;24.626;2023-07-31T00:22:21;21.60;99.90
8313;DHT22;4194;43.408;24.626;2023-07-31T00:24:47;21.60;99.90
8313;DHT22;4194;43.408;24.626;2023-07-31T00:27:12;21.50;99.90
8313;DHT22;4194;43.408;24.626;2023-07-31T00:29:38;22.40;99.90
8313;DHT22;4194;43.408;24.626;2023-07-31T00:32:04;21.60;99.90
8313;DHT22;4194;43.408;24.626;2023-07-31T00:34:30;21.40;99.90
8313;DHT22;4194;43.408;24.626;2023-07-31T00:36:55;21.60;99.90
8313;DHT22;4194;43.408;24.626;2023-07-31T00:39:21;22.70;99.90
8313;DHT22;4194;43.408;24.626;2023-07-31T00:41:46;21.60;99.90
8313;DHT22;4194;43.408;24.626;2023-07-31T00:44:12;21.60;99.90
8313;DHT22;4194;43.408;24.626;2023-07-31T00:46:38;21.60;99.90
8313;DHT22;4194;43.408;24.626;2023-07-31T00:49:04;21.60;99.90
8313;DHT22;4194;43.408;24.626;2023-07-31T00:51:31;21.70;99.90
8313;DHT22;4194;43.408;24.626;2023-07-31T00:53:56;21.50;99.90
8313;DHT22;4194;43.408;24.626;2023-07-31T00:56:24;21.50;99.90
8313;DHT22;4194;43.408;24.626;2023-07-31T00:58:50;20.70;99.90
8313;DHT22;4194;43.408;24.626;2023-07-31T01:01:16;21.50;99.90
8313;DHT22;4194;43.408;24.626;2023-07-31T01:03:42;21.50;99.90
8313;DHT22;4194;43.408;24.626;2023-07-31T01:06:18;21.30;99.90
8313;DHT22;4194;43.408;24.626;2023-07-31T01:09:03;21.40;99.90
8313;DHT22;4194;43.408;24.626;2023-07-31T01:11:31;20.60;99.90
8313;DHT22;4194;43.408;24.626;2023-07-31T01:13:58;22.10;99.90
8313;DHT22;4194;43.408;24.626;2023-07-31T01:16:27;21.50;99.90
8313;DHT22;4194;43.408;24.626;2023-07-31T01:18:53;21.50;99.90
8313;DHT22;4194;43.408;24.626;2023-07-31T01:24:28;21.60;99.90
8313;DHT22;4194;43.408;24.626;2023-07-31T01:27:06;21.60;99.90
8313;DHT22;4194;43.408;24.626;2023-07-31T01:29:50;21.40;99.90
8313;DHT22;4194;43.408;24.626;2023-07-31T01:32:18;21.50;99.90
8313;DHT22;4194;43.408;24.626;2023-07-31T01:34:45;21.60;99.90
8313;DHT22;4194;43.408;24.626;2023-07-31T01:37:12;21.60;99.90
8313;DHT22;4194;43.408;24.626;2023-07-31T01:39:38;21.60;99.90
8313;DHT22;4194;43.408;24.626;2023-07-31T01:42:03;21.60;99.90
8313;DHT22;4194;43.408;24.626;2023-07-31T01:44:29;21.40;99.90
8313;DHT22;4194;43.408;24.626;2023-07-31T01:46:55;22.40;99.90
8313;DHT22;4194;43.408;24.626;2023-07-31T01:49:21;21.60;99.90
8313;DHT22;4194;43.408;24.626;2023-07-31T01:51:46;21.70;99.90
8313;DHT22;4194;43.408;24.626;2023-07-31T01:54:12;21.60;99.90
8313;DHT22;4194;43.408;24.626;2023-07-31T01:56:38;20.80;99.90
8313;DHT22;4194;43.408;24.626;2023-07-31T01:59:03;21.50;99.90
8313;DHT22;4194;43.408;24.626;2023-07-31T02:01:29;21.60;99.90
8313;DHT22;4194;43.408;24.626;2023-07-31T02:03:54;20.80;99.90
8313;DHT22;4194;43.408;24.626;2023-07-31T02:06:20;21.80;99.90
8313;DHT22;4194;43.408;24.626;2023-07-31T02:08:46;21.60;99.90
8313;DHT22;4194;43.408;24.626;2023-07-31T02:11:12;21.60;99.90
8313;DHT22;4194;43.408;24.626;2023-07-31T02:13:37;21.70;99.90
8313;DHT22;4194;43.408;24.626;2023-07-31T02:16:03;21.50;99.90
8313;DHT22;4194;43.408;24.626;2023-07-31T02:18:29;21.40;99.90
8313;DHT22;4194;43.408;24.626;2023-07-31T02:20:54;21.30;99.90
8313;DHT22;4194;43.408;24.626;2023-07-31T02:23:20;21.40;99.90
8313;DHT22;4194;43.408;24.626;2023-07-31T02:25:46;21.30;99.90
8313;DHT22;4194;43.408;24.626;2023-07-31T02:28:12;21.30;99.90
8313;DHT22;4194;43.408;24.626;2023-07-31T02:30:38;21.10;99.90
8313;DHT22;4194;43.408;24.626;2023-07-31T02:33:04;21.30;99.90
8313;DHT22;4194;43.408;24.626;2023-07-31T02:35:30;21.90;99.90
8313;DHT22;4194;43.408;24.626;2023-07-31T02:37:56;21.50;99.90
8313;DHT22;4194;43.408;24.626;2023-07-31T02:40:22;21.30;99.90
8313;DHT22;4194;43.408;24.626;2023-07-31T02:42:48;21.30;99.90
8313;DHT22;4194;43.408;24.626;2023-07-31T02:45:14;21.40;99.90
8313;DHT22;4194;43.408;24.626;2023-07-31T02:47:40;20.40;99.90
8313;DHT22;4194;43.408;24.626;2023-07-31T02:50:06;21.30;99.90
8313;DHT22;4194;43.408;24.626;2023-07-31T02:52:31;21.90;99.90
8313;DHT22;4194;43.408;24.626;2023-07-31T02:54:58;21.30;99.90
8313;DHT22;4194;43.408;24.626;2023-07-31T02:57:23;20.90;99.90
8313;DHT22;4194;43.408;24.626;2023-07-31T02:59:49;21.10;99.90
8313;DHT22;4194;43.408;24.626;2023-07-31T03:02:15;21.50;99.90
8313;DHT22;4194;43.408;24.626;2023-07-31T03:04:40;22.80;99.90
8313;DHT22;4194;43.408;24.626;2023-07-31T03:07:06;21.50;99.90
8313;DHT22;4194;43.408;24.626;2023-07-31T03:09:32;21.60;99.90
8313;DHT22;4194;43.408;24.626;2023-07-31T03:11:58;21.70;99.90
8313;DHT22;4194;43.408;24.626;2023-07-31T03:14:24;21.70;99.90
8313;DHT22;4194;43.408;24.626;2023-07-31T03:16:52;21.70;99.90
8313;DHT22;4194;43.408;24.626;2023-07-31T03:19:17;21.70;99.90
8313;DHT22;4194;43.408;24.626;2023-07-31T03:21:43;21.90;99.90
8313;DHT22;4194;43.408;24.626;2023-07-31T03:24:09;21.70;99.90
8313;DHT22;4194;43.408;24.626;2023-07-31T03:26:34;21.80;99.90
8313;DHT22;4194;43.408;24.626;2023-07-31T03:29:01;21.80;99.90
8313;DHT22;4194;43.408;24.626;2023-07-31T03:31:27;21.90;99.90
8313;DHT22;4194;43.408;24.626;2023-07-31T03:33:53;20.40;99.90
8313;DHT22;4194;43.408;24.626;2023-07-31T03:36:18;21.90;99.90
8313;DHT22;4194;43.408;24.626;2023-07-31T03:38:45;21.90;99.90
8313;DHT22;4194;43.408;24.626;2023-07-31T03:41:11;22.00;99.90
8313;DHT22;4194;43.408;24.626;2023-07-31T03:43:36;22.00;99.90
8313;DHT22;4194;43.408;24.626;2023-07-31T03:46:02;21.90;99.90
8313;DHT22;4194;43.408;24.626;2023-07-31T03:48:28;22.80;99.90
8313;DHT22;4194;43.408;24.626;2023-07-31T03:50:54;21.90;99.90
8313;DHT22;4194;43.408;24.626;2023-07-31T03:53:20;22.00;99.90
8313;DHT22;4194;43.408;24.626;2023-07-31T03:55:46;21.80;99.90
8313;DHT22;4194;43.408;24.626;2023-07-31T03:58:11;22.90;99.90
8313;DHT22;4194;43.408;24.626;2023-07-31T04:00:37;21.80;99.90
8313;DHT22;4194;43.408;24.626;2023-07-31T04:03:03;21.80;99.90
8313;DHT22;4194;43.408;24.626;2023-07-31T04:05:32;22.10;99.90
8313;DHT22;4194;43.408;24.626;2023-07-31T04:07:58;21.70;99.90
8313;DHT22;4194;43.408;24.626;2023-07-31T04:10:24;21.90;99.90
8313;DHT22;4194;43.408;24.626;2023-07-31T04:12:49;21.80;99.90
8313;DHT22;4194;43.408;24.626;2023-07-31T04:15:15;21.80;99.90
8313;DHT22;4194;43.408;24.626;2023-07-31T04:17:41;22.00;99.90
8313;DHT22;4194;43.408;24.626;2023-07-31T04:20:07;22.10;99.90
8313;DHT22;4194;43.408;24.626;2023-07-31T04:22:33;21.70;99.90
8313;DHT22;4194;43.408;24.626;2023-07-31T04:24:58;22.50;99.90
8313;DHT22;4194;43.408;24.626;2023-07-31T04:27:25;21.80;99.90
8313;DHT22;4194;43.408;24.626;2023-07-31T04:29:50;21.30;99.90
8313;DHT22;4194;43.408;24.626;2023-07-31T04:32:16;21.90;99.90
8313;DHT22;4194;43.408;24.626;2023-07-31T04:34:42;21.90;99.90
8313;DHT22;4194;43.408;24.626;2023-07-31T04:37:08;21.90;99.90
8313;DHT22;4194;43.408;24.626;2023-07-31T04:39:34;22.00;99.90
8313;DHT22;4194;43.408;24.626;2023-07-31T04:41:59;22.00;99.90
8313;DHT22;4194;43.408;24.626;2023-07-31T04:44:25;22.10;99.90
8313;DHT22;4194;43.408;24.626;2023-07-31T04:46:50;22.10;99.90
8313;DHT22;4194;43.408;24.626;2023-07-31T04:49:16;22.20;99.90
8313;DHT22;4194;43.408;24.626;2023-07-31T04:51:42;23.50;99.90
8313;DHT22;4194;43.408;24.626;2023-07-31T04:54:08;22.40;99.90
8313;DHT22;4194;43.408;24.626;2023-07-31T04:56:33;22.40;99.90
8313;DHT22;4194;43.408;24.626;2023-07-31T04:58:59;22.50;99.90
8313;DHT22;4194;43.408;24.626;2023-07-31T05:01:25;23.00;99.90
8313;DHT22;4194;43.408;24.626;2023-07-31T05:03:51;22.50;99.90
8313;DHT22;4194;43.408;24.626;2023-07-31T05:06:16;22.60;99.90
8313;DHT22;4194;43.408;24.626;2023-07-31T05:08:42;23.00;99.90
8313;DHT22;4194;43.408;24.626;2023-07-31T05:11:08;23.00;99.90
8313;DHT22;4194;43.408;24.626;2023-07-31T05:13:33;22.80;99.90
8313;DHT22;4194;43.408;24.626;2023-07-31T05:15:59;22.80;99.90
8313;DHT22;4194;43.408;24.626;2023-07-31T05:18:24;23.00;99.90
8313;DHT22;4194;43.408;24.626;2023-07-31T05:20:50;22.80;99.90
8313;DHT22;4194;43.408;24.626;2023-07-31T05:23:16;23.30;99.90
8313;DHT22;4194;43.408;24.626;2023-07-31T05:25:41;23.00;99.90
8313;DHT22;4194;43.408;24.626;2023-07-31T05:28:07;23.10;99.90
8313;DHT22;4194;43.408;24.626;2023-07-31T05:30:33;23.10;99.90
8313;DHT22;4194;43.408;24.626;2023-07-31T05:32:59;23.30;99.90
8313;DHT22;4194;43.408;24.626;2023-07-31T05:35:24;23.30;99.90
8313;DHT22;4194;43.408;24.626;2023-07-31T05:37:50;23.50;99.90
8313;DHT22;4194;43.408;24.626;2023-07-31T05:40:16;23.60;99.90
8313;DHT22;4194;43.408;24.626;2023-07-31T05:42:42;23.90;99.90
8313;DHT22;4194;43.408;24.626;2023-07-31T05:45:07;24.00;99.90
8313;DHT22;4194;43.408;24.626;2023-07-31T05:47:33;23.30;99.90
8313;DHT22;4194;43.408;24.626;2023-07-31T05:49:59;23.80;99.90
8313;DHT22;4194;43.408;24.626;2023-07-31T05:52:25;23.60;99.90
8313;DHT22;4194;43.408;24.626;2023-07-31T05:54:51;23.40;99.90
8313;DHT22;4194;43.408;24.626;2023-07-31T05:57:17;23.30;99.90
8313;DHT22;4194;43.408;24.626;2023-07-31T05:59:42;23.70;99.90
8313;DHT22;4194;43.408;24.626;2023-07-31T06:02:08;23.30;99.90
8313;DHT22;4194;43.408;24.626;2023-07-31T06:04:34;22.90;99.90
8313;DHT22;4194;43.408;24.626;2023-07-31T06:07:00;22.90;99.90
8313;DHT22;4194;43.408;24.626;2023-07-31T06:09:26;23.00;99.90
8313;DHT22;4194;43.408;24.626;2023-07-31T06:11:51;22.90;99.90
8313;DHT22;4194;43.408;24.626;2023-07-31T06:14:17;23.20;99.90
8313;DHT22;4194;43.408;24.626;2023-07-31T06:16:44;24.10;99.90
8313;DHT22;4194;43.408;24.626;2023-07-31T06:19:10;23.30;99.90
8313;DHT22;4194;43.408;24.626;2023-07-31T06:21:36;23.40;99.90
8313;DHT22;4194;43.408;24.626;2023-07-31T06:24:05;23.70;99.90
8313;DHT22;4194;43.408;24.626;2023-07-31T06:26:31;23.90;99.90
8313;DHT22;4194;43.408;24.626;2023-07-31T06:28:57;23.90;99.90
8313;DHT22;4194;43.408;24.626;2023-07-31T06:31:23;23.70;99.90
8313;DHT22;4194;43.408;24.626;2023-07-31T06:33:50;23.80;99.90
8313;DHT22;4194;43.408;24.626;2023-07-31T06:36:16;24.00;99.90
8313;DHT22;4194;43.408;24.626;2023-07-31T06:38:42;23.90;99.90
8313;DHT22;4194;43.408;24.626;2023-07-31T06:41:07;23.90;99.90
8313;DHT22;4194;43.408;24.626;2023-07-31T06:43:33;24.00;99.90
8313;DHT22;4194;43.408;24.626;2023-07-31T06:46:07;24.00;99.90
8313;DHT22;4194;43.408;24.626;2023-07-31T06:48:34;24.40;99.90
8313;DHT22;4194;43.408;24.626;2023-07-31T06:51:00;24.00;99.90
8313;DHT22;4194;43.408;24.626;2023-07-31T06:53:26;24.10;99.90
8313;DHT22;4194;43.408;24.626;2023-07-31T06:55:52;24.80;99.90
8313;DHT22;4194;43.408;24.626;2023-07-31T06:58:18;24.80;99.90
8313;DHT22;4194;43.408;24.626;2023-07-31T07:00:44;24.60;99.90
8313;DHT22;4194;43.408;24.626;2023-07-31T07:03:09;24.70;99.90
8313;DHT22;4194;43.408;24.626;2023-07-31T07:05:35;24.90;99.90
8313;DHT22;4194;43.408;24.626;2023-07-31T07:08:01;25.20;99.90
8313;DHT22;4194;43.408;24.626;2023-07-31T07:10:26;25.40;99.90
8313;DHT22;4194;43.408;24.626;2023-07-31T07:12:53;25.20;99.90
8313;DHT22;4194;43.408;24.626;2023-07-31T07:15:18;25.30;99.90
8313;DHT22;4194;43.408;24.626;2023-07-31T07:17:44;24.90;99.90
8313;DHT22;4194;43.408;24.626;2023-07-31T07:20:10;25.50;99.90
8313;DHT22;4194;43.408;24.626;2023-07-31T07:22:35;25.50;99.90
8313;DHT22;4194;43.408;24.626;2023-07-31T07:25:02;26.10;99.90
8313;DHT22;4194;43.408;24.626;2023-07-31T07:27:27;26.60;99.90
8313;DHT22;4194;43.408;24.626;2023-07-31T07:29:53;25.80;99.90
8313;DHT22;4194;43.408;24.626;2023-07-31T07:32:20;25.90;99.60
8313;DHT22;4194;43.408;24.626;2023-07-31T07:34:46;25.80;99.90
8313;DHT22;4194;43.408;24.626;2023-07-31T07:37:12;26.00;98.90
8313;DHT22;4194;43.408;24.626;2023-07-31T07:39:38;25.90;98.10
8313;DHT22;4194;43.408;24.626;2023-07-31T07:42:03;25.90;98.20
8313;DHT22;4194;43.408;24.626;2023-07-31T07:44:29;25.90;98.70
8313;DHT22;4194;43.408;24.626;2023-07-31T07:46:55;25.80;97.90
8313;DHT22;4194;43.408;24.626;2023-07-31T07:49:20;26.40;98.20
8313;DHT22;4194;43.408;24.626;2023-07-31T07:51:48;25.30;95.80
8313;DHT22;4194;43.408;24.626;2023-07-31T07:54:14;26.90;96.60
8313;DHT22;4194;43.408;24.626;2023-07-31T07:56:39;26.90;96.00
8313;DHT22;4194;43.408;24.626;2023-07-31T07:59:05;26.80;95.30
8313;DHT22;4194;43.408;24.626;2023-07-31T08:01:31;26.70;95.90
8313;DHT22;4194;43.408;24.626;2023-07-31T08:03:57;26.70;95.60
8313;DHT22;4194;43.408;24.626;2023-07-31T08:06:23;26.40;95.80
8313;DHT22;4194;43.408;24.626;2023-07-31T08:08:48;26.40;96.30
8313;DHT22;4194;43.408;24.626;2023-07-31T08:11:14;26.00;95.70
8313;DHT22;4194;43.408;24.626;2023-07-31T08:13:40;26.30;96.10
8313;DHT22;4194;43.408;24.626;2023-07-31T08:16:05;26.40;96.10
8313;DHT22;4194;43.408;24.626;2023-07-31T08:18:31;26.60;95.60
8313;DHT22;4194;43.408;24.626;2023-07-31T08:20:58;26.70;95.40
8313;DHT22;4194;43.408;24.626;2023-07-31T08:23:24;26.70;95.20
8313;DHT22;4194;43.408;24.626;2023-07-31T08:25:49;26.80;94.50
8313;DHT22;4194;43.408;24.626;2023-07-31T08:28:16;26.80;95.20
8313;DHT22;4194;43.408;24.626;2023-07-31T08:30:42;27.00;94.60
8313;DHT22;4194;43.408;24.626;2023-07-31T08:33:08;27.20;94.00
8313;DHT22;4194;43.408;24.626;2023-07-31T08:35:33;27.10;94.00
8313;DHT22;4194;43.408;24.626;2023-07-31T08:37:59;27.20;93.80
8313;DHT22;4194;43.408;24.626;2023-07-31T08:40:25;27.10;93.60
8313;DHT22;4194;43.408;24.626;2023-07-31T08:42:54;27.10;93.60
8313;DHT22;4194;43.408;24.626;2023-07-31T08:45:22;26.90;93.30
8313;DHT22;4194;43.408;24.626;2023-07-31T08:47:49;27.20;93.80
8313;DHT22;4194;43.408;24.626;2023-07-31T08:50:17;27.30;93.20
8313;DHT22;4194;43.408;24.626;2023-07-31T08:52:43;27.10;93.40
8313;DHT22;4194;43.408;24.626;2023-07-31T08:55:09;27.10;93.70
8313;DHT22;4194;43.408;24.626;2023-07-31T08:57:37;27.20;93.30
8313;DHT22;4194;43.408;24.626;2023-07-31T09:00:04;27.10;93.30
8313;DHT22;4194;43.408;24.626;2023-07-31T09:03:14;27.10;93.70
8313;DHT22;4194;43.408;24.626;2023-07-31T09:05:45;27.30;93.90
8313;DHT22;4194;43.408;24.626;2023-07-31T09:08:13;27.60;92.80
8313;DHT22;4194;43.408;24.626;2023-07-31T09:10:44;27.60;92.60
8313;DHT22;4194;43.408;24.626;2023-07-31T09:13:15;27.20;92.60
8313;DHT22;4194;43.408;24.626;2023-07-31T09:15:43;27.20;93.20
8313;DHT22;4194;43.408;24.626;2023-07-31T09:18:09;26.90;93.30
8313;DHT22;4194;43.408;24.626;2023-07-31T09:20:35;26.70;93.70
8313;DHT22;4194;43.408;24.626;2023-07-31T09:23:12;26.50;94.10
8313;DHT22;4194;43.408;24.626;2023-07-31T09:25:39;26.40;94.90
8313;DHT22;4194;43.408;24.626;2023-07-31T09:28:07;26.50;95.30
8313;DHT22;4194;43.408;24.626;2023-07-31T09:30:50;26.70;95.50
8313;DHT22;4194;43.408;24.626;2023-07-31T09:33:17;26.80;95.60
8313;DHT22;4194;43.408;24.626;2023-07-31T09:35:43;26.60;95.30
8313;DHT22;4194;43.408;24.626;2023-07-31T09:38:13;26.50;95.60
8313;DHT22;4194;43.408;24.626;2023-07-31T09:40:40;26.30;95.90
8313;DHT22;4194;43.408;24.626;2023-07-31T09:43:08;26.00;96.10
8313;DHT22;4194;43.408;24.626;2023-07-31T09:45:37;26.00;97.10
8313;DHT22;4194;43.408;24.626;2023-07-31T09:48:03;26.20;97.40
8313;DHT22;4194;43.408;24.626;2023-07-31T09:50:31;26.20;96.70
8313;DHT22;4194;43.408;24.626;2023-07-31T09:52:57;26.30;97.00
8313;DHT22;4194;43.408;24.626;2023-07-31T09:55:24;26.40;97.10
8313;DHT22;4194;43.408;24.626;2023-07-31T09:57:50;26.40;97.20
8313;DHT22;4194;43.408;24.626;2023-07-31T10:00:17;26.70;97.50
8313;DHT22;4194;43.408;24.626;2023-07-31T10:02:47;26.70;97.70
8313;DHT22;4194;43.408;24.626;2023-07-31T10:05:14;26.50;96.30
8313;DHT22;4194;43.408;24.626;2023-07-31T10:07:54;26.50;96.90
8313;DHT22;4194;43.408;24.626;2023-07-31T10:10:22;26.70;96.10
8313;DHT22;4194;43.408;24.626;2023-07-31T10:12:49;26.70;96.60
8313;DHT22;4194;43.408;24.626;2023-07-31T10:15:16;26.80;96.50
8313;DHT22;4194;43.408;24.626;2023-07-31T10:17:42;26.90;96.70
8313;DHT22;4194;43.408;24.626;2023-07-31T10:20:08;27.10;96.20
8313;DHT22;4194;43.408;24.626;2023-07-31T10:22:35;27.50;95.70
8313;DHT22;4194;43.408;24.626;2023-07-31T10:25:01;27.60;95.40
8313;DHT22;4194;43.408;24.626;2023-07-31T10:27:27;27.90;94.70
8313;DHT22;4194;43.408;24.626;2023-07-31T10:29:54;27.70;94.50
8313;DHT22;4194;43.408;24.626;2023-07-31T10:32:21;27.70;94.10
8313;DHT22;4194;43.408;24.626;2023-07-31T10:34:48;27.90;94.20
8313;DHT22;4194;43.408;24.626;2023-07-31T10:37:36;27.50;93.50
8313;DHT22;4194;43.408;24.626;2023-07-31T10:40:09;27.50;93.90
8313;DHT22;4194;43.408;24.626;2023-07-31T10:42:38;27.60;94.20
8313;DHT22;4194;43.408;24.626;2023-07-31T10:45:08;27.90;93.80
8313;DHT22;4194;43.408;24.626;2023-07-31T10:47:46;27.80;93.70
8313;DHT22;4194;43.408;24.626;2023-07-31T10:50:23;28.00;93.20
8313;DHT22;4194;43.408;24.626;2023-07-31T10:52:53;28.10;93.00
8313;DHT22;4194;43.408;24.626;2023-07-31T10:55:25;28.50;92.90
8313;DHT22;4194;43.408;24.626;2023-07-31T10:57:51;28.40;91.60
8313;DHT22;4194;43.408;24.626;2023-07-31T11:00:29;28.90;91.70
8313;DHT22;4194;43.408;24.626;2023-07-31T11:03:00;29.20;90.30
8313;DHT22;4194;43.408;24.626;2023-07-31T11:05:49;29.40;90.40
8313;DHT22;4194;43.408;24.626;2023-07-31T11:08:26;29.60;89.70
8313;DHT22;4194;43.408;24.626;2023-07-31T11:13:30;30.50;86.40
8313;DHT22;4194;43.408;24.626;2023-07-31T11:15:55;30.90;86.00
8313;DHT22;4194;43.408;24.626;2023-07-31T11:18:21;30.80;84.40
8313;DHT22;4194;43.408;24.626;2023-07-31T11:20:47;31.00;82.90
8313;DHT22;4194;43.408;24.626;2023-07-31T11:23:13;31.50;82.00
8313;DHT22;4194;43.408;24.626;2023-07-31T11:25:41;32.10;81.40
8313;DHT22;4194;43.408;24.626;2023-07-31T11:28:10;32.70;79.90
8313;DHT22;4194;43.408;24.626;2023-07-31T11:30:36;33.70;75.40
8313;DHT22;4194;43.408;24.626;2023-07-31T11:33:03;33.80;73.00
8313;DHT22;4194;43.408;24.626;2023-07-31T11:35:44;33.50;72.10
8313;DHT22;4194;43.408;24.626;2023-07-31T11:38:12;33.40;72.80
8313;DHT22;4194;43.408;24.626;2023-07-31T11:40:44;32.90;74.00
8313;DHT22;4194;43.408;24.626;2023-07-31T11:43:10;32.50;73.30
8313;DHT22;4194;43.408;24.626;2023-07-31T11:45:41;32.10;74.40
8313;DHT22;4194;43.408;24.626;2023-07-31T11:48:07;31.30;76.10
8313;DHT22;4194;43.408;24.626;2023-07-31T11:50:36;30.20;78.50
8313;DHT22;4194;43.408;24.626;2023-07-31T11:53:07;29.90;81.00
8313;DHT22;4194;43.408;24.626;2023-07-31T11:55:35;29.60;82.10
8313;DHT22;4194;43.408;24.626;2023-07-31T11:58:01;29.10;83.20
8313;DHT22;4194;43.408;24.626;2023-07-31T12:00:27;29.10;84.70
8313;DHT22;4194;43.408;24.626;2023-07-31T12:02:53;29.20;83.90
8313;DHT22;4194;43.408;24.626;2023-07-31T12:05:19;29.40;83.60
8313;DHT22;4194;43.408;24.626;2023-07-31T12:07:55;30.00;82.90
8313;DHT22;4194;43.408;24.626;2023-07-31T12:10:31;30.80;79.80
8313;DHT22;4194;43.408;24.626;2023-07-31T12:13:05;32.10;77.80
8313;DHT22;4194;43.408;24.626;2023-07-31T12:15:39;33.20;71.90
8313;DHT22;4194;43.408;24.626;2023-07-31T12:18:12;34.40;69.40
8313;DHT22;4194;43.408;24.626;2023-07-31T12:20:58;33.90;68.10
8313;DHT22;4194;43.408;24.626;2023-07-31T12:23:29;34.40;68.10
8313;DHT22;4194;43.408;24.626;2023-07-31T12:28:49;34.30;66.40
8313;DHT22;4194;43.408;24.626;2023-07-31T12:33:49;32.30;69.60
8313;DHT22;4194;43.408;24.626;2023-07-31T12:36:17;31.80;71.20
8313;DHT22;4194;43.408;24.626;2023-07-31T12:38:43;31.60;72.00
8313;DHT22;4194;43.408;24.626;2023-07-31T12:41:10;30.90;72.60
8313;DHT22;4194;43.408;24.626;2023-07-31T12:43:37;31.00;73.60
8313;DHT22;4194;43.408;24.626;2023-07-31T12:46:03;30.90;75.30
8313;DHT22;4194;43.408;24.626;2023-07-31T12:48:29;30.30;76.90
8313;DHT22;4194;43.408;24.626;2023-07-31T12:50:54;29.90;79.00
8313;DHT22;4194;43.408;24.626;2023-07-31T12:53:20;29.50;84.30
8313;DHT22;4194;43.408;24.626;2023-07-31T12:55:46;29.80;87.00
8313;DHT22;4194;43.408;24.626;2023-07-31T12:58:12;30.50;85.90
8313;DHT22;4194;43.408;24.626;2023-07-31T13:00:38;31.50;83.90
8313;DHT22;4194;43.408;24.626;2023-07-31T13:03:04;31.30;82.00
8313;DHT22;4194;43.408;24.626;2023-07-31T13:05:30;31.20;81.40
8313;DHT22;4194;43.408;24.626;2023-07-31T13:07:56;30.80;82.10
8313;DHT22;4194;43.408;24.626;2023-07-31T13:10:23;30.30;84.00
8313;DHT22;4194;43.408;24.626;2023-07-31T13:12:49;30.00;83.60
8313;DHT22;4194;43.408;24.626;2023-07-31T13:15:14;29.70;85.40
8313;DHT22;4194;43.408;24.626;2023-07-31T13:17:40;29.70;85.90
8313;DHT22;4194;43.408;24.626;2023-07-31T13:20:07;29.80;87.30
8313;DHT22;4194;43.408;24.626;2023-07-31T13:22:33;29.50;84.00
8313;DHT22;4194;43.408;24.626;2023-07-31T13:24:58;29.60;83.80
8313;DHT22;4194;43.408;24.626;2023-07-31T13:27:24;29.50;84.40
8313;DHT22;4194;43.408;24.626;2023-07-31T13:29:51;30.10;85.50
8313;DHT22;4194;43.408;24.626;2023-07-31T13:32:18;30.90;82.10
8313;DHT22;4194;43.408;24.626;2023-07-31T13:34:44;33.20;77.20
8313;DHT22;4194;43.408;24.626;2023-07-31T13:37:10;34.60;71.00
8313;DHT22;4194;43.408;24.626;2023-07-31T13:39:36;35.20;69.30
8313;DHT22;4194;43.408;24.626;2023-07-31T13:42:06;34.40;68.40
8313;DHT22;4194;43.408;24.626;2023-07-31T13:44:34;33.70;70.60
8313;DHT22;4194;43.408;24.626;2023-07-31T13:47:00;33.40;69.80
8313;DHT22;4194;43.408;24.626;2023-07-31T13:49:26;33.10;70.40
8313;DHT22;4194;43.408;24.626;2023-07-31T13:51:52;34.90;67.40
8313;DHT22;4194;43.408;24.626;2023-07-31T13:54:17;36.60;61.60
8313;DHT22;4194;43.408;24.626;2023-07-31T13:56:44;35.80;60.40
8313;DHT22;4194;43.408;24.626;2023-07-31T13:59:10;34.70;62.70
8313;DHT22;4194;43.408;24.626;2023-07-31T14:01:36;34.40;64.80
8313;DHT22;4194;43.408;24.626;2023-07-31T14:04:01;34.30;64.60
8313;DHT22;4194;43.408;24.626;2023-07-31T14:06:27;36.50;61.70
8313;DHT22;4194;43.408;24.626;2023-07-31T14:08:53;39.40;56.40
8313;DHT22;4194;43.408;24.626;2023-07-31T14:11:19;40.80;52.10
8313;DHT22;4194;43.408;24.626;2023-07-31T14:13:44;42.00;50.30
8313;DHT22;4194;43.408;24.626;2023-07-31T14:16:10;43.30;48.10
8313;DHT22;4194;43.408;24.626;2023-07-31T14:18:36;43.20;46.30
8313;DHT22;4194;43.408;24.626;2023-07-31T14:21:01;42.80;46.80
8313;DHT22;4194;43.408;24.626;2023-07-31T14:23:27;42.20;47.00
8313;DHT22;4194;43.408;24.626;2023-07-31T14:25:53;41.10;48.70
8313;DHT22;4194;43.408;24.626;2023-07-31T14:28:19;39.60;49.40
8313;DHT22;4194;43.408;24.626;2023-07-31T14:30:44;38.00;50.30
8313;DHT22;4194;43.408;24.626;2023-07-31T14:33:10;37.40;52.50
8313;DHT22;4194;43.408;24.626;2023-07-31T14:35:36;37.50;51.90
8313;DHT22;4194;43.408;24.626;2023-07-31T14:38:01;36.80;52.70
8313;DHT22;4194;43.408;24.626;2023-07-31T14:40:27;36.40;54.40
8313;DHT22;4194;43.408;24.626;2023-07-31T14:42:53;35.80;55.10
8313;DHT22;4194;43.408;24.626;2023-07-31T14:45:19;36.70;55.20
8313;DHT22;4194;43.408;24.626;2023-07-31T14:47:44;38.50;53.00
8313;DHT22;4194;43.408;24.626;2023-07-31T14:50:10;40.50;49.80
8313;DHT22;4194;43.408;24.626;2023-07-31T14:52:37;42.60;48.00
8313;DHT22;4194;43.408;24.626;2023-07-31T14:55:02;44.20;43.60
8313;DHT22;4194;43.408;24.626;2023-07-31T14:57:28;44.60;41.70
8313;DHT22;4194;43.408;24.626;2023-07-31T14:59:54;45.20;40.60
8313;DHT22;4194;43.408;24.626;2023-07-31T15:02:19;45.50;41.20
8313;DHT22;4194;43.408;24.626;2023-07-31T15:04:45;46.40;40.20
8313;DHT22;4194;43.408;24.626;2023-07-31T15:07:11;44.60;40.70
8313;DHT22;4194;43.408;24.626;2023-07-31T15:09:39;42.50;43.30
8313;DHT22;4194;43.408;24.626;2023-07-31T15:12:05;41.30;45.70
8313;DHT22;4194;43.408;24.626;2023-07-31T15:14:31;39.10;47.40
8313;DHT22;4194;43.408;24.626;2023-07-31T15:16:57;36.90;50.50
8313;DHT22;4194;43.408;24.626;2023-07-31T15:19:22;35.20;53.50
8313;DHT22;4194;43.408;24.626;2023-07-31T15:21:49;33.10;56.50
8313;DHT22;4194;43.408;24.626;2023-07-31T15:24:15;33.30;57.70
8313;DHT22;4194;43.408;24.626;2023-07-31T15:26:41;32.40;58.90
8313;DHT22;4194;43.408;24.626;2023-07-31T15:29:08;33.40;58.80
8313;DHT22;4194;43.408;24.626;2023-07-31T15:31:43;35.00;55.80
8313;DHT22;4194;43.408;24.626;2023-07-31T15:34:09;35.10;55.40
8313;DHT22;4194;43.408;24.626;2023-07-31T15:36:35;34.50;55.10
8313;DHT22;4194;43.408;24.626;2023-07-31T15:39:00;33.70;57.10
8313;DHT22;4194;43.408;24.626;2023-07-31T15:41:26;32.60;62.00
8313;DHT22;4194;43.408;24.626;2023-07-31T15:43:52;31.20;67.10
8313;DHT22;4194;43.408;24.626;2023-07-31T15:46:18;29.90;72.60
8313;DHT22;4194;43.408;24.626;2023-07-31T15:48:44;29.10;76.50
8313;DHT22;4194;43.408;24.626;2023-07-31T15:51:10;28.80;79.00
8313;DHT22;4194;43.408;24.626;2023-07-31T15:53:35;27.80;86.10